Strona główna
METAR-TAF:

METAR-TAF

Lotnisko :

Preston, Anglia

Szerokość geograficzna: 53-44-42N, Długość geograficzna: 2-53-02W, wysokość: 17 m

METAR: brakujący

czas: 16:10 (15:10 UTC)

Prognoza

Raport powstał 25 godziny i 15 minut temu, godzina 13:55 UTC
Prognoza ważna od 14 godzina 15 UTC do 14 godzina 18 UTC
Wiatr 4 kt od południowo-południowy wschód
Widzialność 10 km lub więcej
Mało chmury na wysokości 2000 ft
Prawdopodobieństwo 40% :
Przejściowo
od 14 godzina 15 UTC do 14 godzina 18 UTC
Widzialność: 7000 m
przelotny opad deszczu

TAF: EGNO 141355Z 1415/1418 15004KT 9999 FEW020 PROB40 TEMPO 1415/1418 7000 SHRA

Obserwacja i prognoza pogody dla ponad 4000 lotnisk (raport METAR i TAF).

Dostępne stacje oznaczono żółtymi i czerwonymi punktami na mapie.

Najedź kursorem aby zobaczyć nazwę stacji.

Kliknij aby zobaczyć obserwacje i prognozy pogody.

Aby zmienić mapę: kliknij na zielony przycisk z czarnym krzyżykiem, aby powiększyć; na zielony przycisk z myślnikiem, aby pomniejszyć; na zielone strzałki, aby przejść do map sąsiednich.


METAR-TAF: